Terminal Aerodrome Forecast
Issued by NWS

Home | Current Version | Previous Version | Text Only | Print | Product List | Glossary On
Versions: 1 2 3 4 5 6 7 8 9 10 11 12 13 14
192
FTPA31 PHFO 280522
TAFHTO
TAF
PHTO 280522Z 2806/2906 03008KT P6SM FEW025 SCT050
     FM280700 25005KT P6SM VCSH SCT025 BKN050
     FM281400 VRB05KT 4SM SHRA BR BKN025 OVC045
     FM282200 07008KT 5SM -SHRA BKN025 BKN045
     FM290400 VRB05KT P6SM VCSH BKN025 BKN045=

USA.gov is the U.S. government's official web portal to all federal, state and local government web resources and services.